createdAt,value
2022-07-28T00:00:23.586Z,11.30
2022-07-28T00:02:50.386Z,11.20
2022-07-28T00:05:17.232Z,11.10
2022-07-28T00:07:44.028Z,11.10
2022-07-28T00:10:10.763Z,10.90
2022-07-28T00:12:37.701Z,10.80
2022-07-28T00:15:05.535Z,10.80
2022-07-28T00:17:32.287Z,10.70
2022-07-28T00:19:58.995Z,10.70
2022-07-28T00:22:25.754Z,10.70
2022-07-28T00:24:52.422Z,10.70
2022-07-28T00:27:19.622Z,10.70
2022-07-28T00:29:50.343Z,10.70
2022-07-28T00:32:18.568Z,10.60
2022-07-28T00:34:45.344Z,10.70
2022-07-28T00:37:14.432Z,10.60
2022-07-28T00:39:41.403Z,10.60
2022-07-28T00:42:09.106Z,10.60
2022-07-28T00:44:38.959Z,10.50
2022-07-28T00:47:05.774Z,10.50
2022-07-28T00:49:32.621Z,10.50
2022-07-28T00:52:00.153Z,10.40
2022-07-28T00:54:26.894Z,10.30
2022-07-28T00:56:53.501Z,10.40
2022-07-28T00:59:20.191Z,10.30
2022-07-28T01:01:48.949Z,10.30
2022-07-28T01:04:16.706Z,10.20
2022-07-28T01:07:02.511Z,10.20
2022-07-28T01:09:51.166Z,10.10
2022-07-28T01:12:37.382Z,10.10
2022-07-28T01:15:19.376Z,10.10
2022-07-28T01:18:04.920Z,10.10
2022-07-28T01:20:41.718Z,10.00
2022-07-28T01:23:11.345Z,9.90
2022-07-28T01:26:04.200Z,9.90
2022-07-28T01:28:49.882Z,9.80
2022-07-28T01:31:23.579Z,9.80
2022-07-28T01:33:56.811Z,9.70
2022-07-28T01:36:28.725Z,9.70
2022-07-28T01:38:56.361Z,9.70
2022-07-28T01:41:27.683Z,9.70
2022-07-28T01:44:01.408Z,9.70
2022-07-28T01:46:29.049Z,9.70
2022-07-28T01:48:58.013Z,9.70
2022-07-28T01:51:28.550Z,9.60
2022-07-28T01:53:58.404Z,9.60
2022-07-28T01:56:27.149Z,9.50
2022-07-28T01:58:57.378Z,9.50
2022-07-28T02:01:26.335Z,9.40
2022-07-28T02:03:56.358Z,9.30
2022-07-28T02:06:24.801Z,9.30
2022-07-28T02:08:53.047Z,9.20
2022-07-28T02:11:38.693Z,9.20
2022-07-28T02:14:23.055Z,9.20
2022-07-28T02:17:04.223Z,9.20
2022-07-28T02:19:32.878Z,9.10
2022-07-28T02:22:02.260Z,9.10
2022-07-28T02:24:30.031Z,9.10
2022-07-28T02:27:01.673Z,9.00
2022-07-28T02:32:28.045Z,9.10
2022-07-28T02:35:15.045Z,9.20
2022-07-28T02:38:15.924Z,9.10
2022-07-28T02:40:44.857Z,9.10
2022-07-28T02:43:15.725Z,9.10
2022-07-28T02:45:46.720Z,9.10
2022-07-28T02:48:21.590Z,9.00
2022-07-28T02:50:49.727Z,9.00
2022-07-28T02:53:17.137Z,9.00
2022-07-28T02:55:47.265Z,9.00
2022-07-28T02:58:15.538Z,8.90
2022-07-28T03:00:42.949Z,8.90
2022-07-28T03:03:10.629Z,8.90
2022-07-28T03:05:39.584Z,8.90
2022-07-28T03:08:06.477Z,8.90
2022-07-28T03:10:34.871Z,9.00
2022-07-28T03:13:03.702Z,8.90
2022-07-28T03:15:31.324Z,8.70
2022-07-28T03:17:59.183Z,8.60
2022-07-28T03:20:26.533Z,8.60
2022-07-28T03:22:53.215Z,8.60
2022-07-28T03:25:26.991Z,8.60
2022-07-28T03:27:54.762Z,8.70
2022-07-28T03:30:27.071Z,8.70
2022-07-28T03:33:00.560Z,8.60
2022-07-28T03:35:28.843Z,8.60
2022-07-28T03:37:59.898Z,8.70
2022-07-28T03:40:29.925Z,8.70
2022-07-28T03:42:57.885Z,8.80
2022-07-28T03:45:25.169Z,9.00
2022-07-28T03:47:54.154Z,9.40
2022-07-28T03:50:25.908Z,9.50
2022-07-28T03:52:53.665Z,9.80
2022-07-28T03:55:20.635Z,10.10
2022-07-28T03:57:47.622Z,10.50
2022-07-28T04:00:16.440Z,10.90
2022-07-28T04:02:46.837Z,11.30
2022-07-28T04:05:15.432Z,11.80
2022-07-28T04:07:42.844Z,12.20
2022-07-28T04:10:12.030Z,12.50
2022-07-28T04:12:49.638Z,12.80
2022-07-28T04:15:17.084Z,13.10
2022-07-28T04:17:44.218Z,13.30
2022-07-28T04:20:11.594Z,13.30
2022-07-28T04:22:38.390Z,13.30
2022-07-28T04:25:06.441Z,13.30
2022-07-28T04:27:36.212Z,13.50
2022-07-28T04:30:05.255Z,13.90
2022-07-28T04:32:31.914Z,14.30
2022-07-28T04:34:58.713Z,14.90
2022-07-28T04:37:25.561Z,15.50
2022-07-28T04:39:59.157Z,15.90
2022-07-28T04:42:26.032Z,16.20
2022-07-28T04:44:52.753Z,16.30
2022-07-28T04:47:19.489Z,16.10
2022-07-28T04:49:46.156Z,15.80
2022-07-28T04:52:13.193Z,15.70
2022-07-28T04:54:39.864Z,16.00
2022-07-28T04:57:10.240Z,16.20
2022-07-28T04:59:37.622Z,16.70
2022-07-28T05:02:04.420Z,17.40
2022-07-28T05:04:31.514Z,17.90
2022-07-28T05:06:58.233Z,18.20
2022-07-28T05:09:25.337Z,18.40
2022-07-28T05:11:52.166Z,18.60
2022-07-28T05:14:18.881Z,18.80
2022-07-28T05:16:45.766Z,18.90
2022-07-28T05:19:12.758Z,18.80
2022-07-28T05:21:39.430Z,18.30
2022-07-28T05:24:06.835Z,17.80
2022-07-28T05:26:34.215Z,17.30
2022-07-28T05:29:01.017Z,16.80
2022-07-28T05:31:27.755Z,16.60
2022-07-28T05:33:54.475Z,16.20
2022-07-28T05:36:21.626Z,16.00
2022-07-28T05:38:49.119Z,16.10
2022-07-28T05:41:15.947Z,16.20
2022-07-28T05:43:42.591Z,16.30
2022-07-28T05:46:09.303Z,16.40
2022-07-28T05:48:36.180Z,16.40
2022-07-28T05:51:05.498Z,16.30
2022-07-28T05:53:32.235Z,16.30
2022-07-28T05:56:01.357Z,16.50
2022-07-28T05:58:28.731Z,16.50
2022-07-28T06:01:02.338Z,16.30
2022-07-28T06:03:31.857Z,16.20
2022-07-28T06:06:00.715Z,16.10
2022-07-28T06:08:42.061Z,16.10
2022-07-28T06:11:17.979Z,16.00
2022-07-28T06:13:50.447Z,15.90
2022-07-28T06:16:17.329Z,15.90
2022-07-28T06:18:44.164Z,16.20
2022-07-28T06:21:11.044Z,16.40
2022-07-28T06:23:38.062Z,16.40
2022-07-28T06:26:04.686Z,16.70
2022-07-28T06:28:32.864Z,16.90
2022-07-28T06:30:59.574Z,17.30
2022-07-28T06:33:26.366Z,17.80
2022-07-28T06:35:53.082Z,18.10
2022-07-28T06:38:22.508Z,18.00
2022-07-28T06:40:49.235Z,18.30
2022-07-28T06:43:15.886Z,19.10
2022-07-28T06:45:44.925Z,19.90
2022-07-28T06:48:13.603Z,20.30
2022-07-28T06:50:41.138Z,20.40
2022-07-28T06:53:07.841Z,20.40
2022-07-28T06:55:35.770Z,20.30
2022-07-28T06:58:03.481Z,20.60
2022-07-28T07:00:30.614Z,21.40
2022-07-28T07:02:57.595Z,22.20
2022-07-28T07:05:26.057Z,23.10
2022-07-28T07:07:52.810Z,23.70
2022-07-28T07:10:19.488Z,23.60
2022-07-28T07:12:46.236Z,23.00
2022-07-28T07:15:12.993Z,22.40
2022-07-28T07:17:39.861Z,21.70
2022-07-28T07:20:07.193Z,21.00
2022-07-28T07:22:33.978Z,20.70
2022-07-28T07:25:13.473Z,20.60
2022-07-28T07:27:40.167Z,20.80
2022-07-28T07:30:08.659Z,21.40
2022-07-28T07:32:35.800Z,21.70
2022-07-28T07:35:02.645Z,21.60
2022-07-28T07:37:32.372Z,21.80
2022-07-28T07:40:00.180Z,21.40
2022-07-28T07:42:27.468Z,20.60
2022-07-28T07:44:54.488Z,20.30
2022-07-28T07:47:21.146Z,20.10
2022-07-28T07:49:47.867Z,20.10
2022-07-28T07:52:14.973Z,20.60
2022-07-28T07:54:42.043Z,20.80
2022-07-28T07:57:09.381Z,21.80
2022-07-28T07:59:36.388Z,22.20
2022-07-28T08:02:03.547Z,21.90
2022-07-28T08:04:30.355Z,21.80
2022-07-28T08:06:57.127Z,22.20
2022-07-28T08:09:23.956Z,22.30
2022-07-28T08:11:50.691Z,22.10
2022-07-28T08:14:18.136Z,21.70
2022-07-28T08:16:45.181Z,21.50
2022-07-28T08:19:12.301Z,21.80
2022-07-28T08:21:39.484Z,22.30
2022-07-28T08:24:06.670Z,23.50
2022-07-28T08:26:33.389Z,23.70
2022-07-28T08:29:00.078Z,23.30
2022-07-28T08:31:26.840Z,23.50
2022-07-28T08:33:54.920Z,23.90
2022-07-28T08:36:22.270Z,23.90
2022-07-28T08:38:49.152Z,23.90
2022-07-28T08:41:36.427Z,25.20
2022-07-28T08:44:04.164Z,26.50
2022-07-28T08:46:38.482Z,26.70
2022-07-28T08:49:09.412Z,26.10
2022-07-28T08:51:37.728Z,25.10
2022-07-28T08:54:06.209Z,24.30
2022-07-28T08:56:34.068Z,23.50
2022-07-28T08:59:02.994Z,23.50
2022-07-28T09:01:38.347Z,24.00
2022-07-28T09:04:07.118Z,24.40
2022-07-28T09:06:34.090Z,24.80
2022-07-28T09:09:00.723Z,25.20
2022-07-28T09:11:28.677Z,26.50
2022-07-28T09:13:55.354Z,26.90
2022-07-28T09:16:22.192Z,25.70
2022-07-28T09:18:48.923Z,24.30
2022-07-28T09:21:15.739Z,23.00
2022-07-28T09:23:47.964Z,23.40
2022-07-28T09:26:15.911Z,24.20
2022-07-28T09:28:59.043Z,24.50
2022-07-28T09:31:27.671Z,25.10
2022-07-28T09:33:56.569Z,24.90
2022-07-28T09:36:23.773Z,24.30
2022-07-28T09:38:50.694Z,25.00
2022-07-28T09:41:24.156Z,25.90
2022-07-28T09:43:55.385Z,25.90
2022-07-28T09:46:25.325Z,25.90
2022-07-28T09:48:58.705Z,26.60
2022-07-28T09:51:28.597Z,27.50
2022-07-28T09:54:09.136Z,28.80
2022-07-28T09:56:36.742Z,29.70
2022-07-28T09:59:03.897Z,29.50
2022-07-28T10:01:36.514Z,29.10
2022-07-28T10:04:04.345Z,28.10
2022-07-28T10:06:34.013Z,26.70
2022-07-28T10:09:03.538Z,26.00
2022-07-28T10:11:30.770Z,25.80
2022-07-28T10:14:18.611Z,25.30
2022-07-28T10:16:53.274Z,25.00
2022-07-28T10:19:20.166Z,24.90
2022-07-28T10:21:48.801Z,25.70
2022-07-28T10:24:22.593Z,26.10
2022-07-28T10:26:50.501Z,26.10
2022-07-28T10:29:22.095Z,27.20
2022-07-28T10:31:54.391Z,28.40
2022-07-28T10:34:31.761Z,28.80
2022-07-28T10:37:04.091Z,29.60
2022-07-28T10:39:41.047Z,30.40
2022-07-28T10:42:12.943Z,31.30
2022-07-28T10:44:41.622Z,32.10
2022-07-28T10:47:18.561Z,32.90
2022-07-28T10:49:48.887Z,33.10
2022-07-28T10:52:37.699Z,33.30
2022-07-28T10:55:35.655Z,33.30
2022-07-28T10:58:24.726Z,31.10
2022-07-28T11:00:58.242Z,28.90
2022-07-28T11:03:40.488Z,28.70
2022-07-28T11:06:27.922Z,27.70
2022-07-28T11:09:17.636Z,27.00
2022-07-28T11:11:50.211Z,27.10
2022-07-28T11:14:25.969Z,28.50
2022-07-28T11:17:16.328Z,28.80
2022-07-28T11:20:16.800Z,29.00
2022-07-28T11:22:42.717Z,28.80
2022-07-28T11:25:18.068Z,29.00
2022-07-28T11:27:50.315Z,28.80
2022-07-28T11:30:25.958Z,28.10
2022-07-28T11:32:55.843Z,28.80
2022-07-28T11:35:27.215Z,30.10
2022-07-28T11:38:14.432Z,30.20
2022-07-28T11:40:46.099Z,28.70
2022-07-28T11:43:36.803Z,28.60
2022-07-28T11:46:04.737Z,28.30
2022-07-28T11:48:34.719Z,28.60
2022-07-28T11:51:04.252Z,28.50
2022-07-28T11:53:47.279Z,28.80
2022-07-28T11:56:36.091Z,29.60
2022-07-28T11:59:07.003Z,31.10
2022-07-28T12:01:38.241Z,32.80
2022-07-28T12:04:13.345Z,33.40
2022-07-28T12:06:42.564Z,33.50
2022-07-28T12:09:11.089Z,33.10
2022-07-28T12:11:42.358Z,32.80
2022-07-28T12:14:15.080Z,31.70
2022-07-28T12:16:44.397Z,30.10
2022-07-28T12:19:14.890Z,29.40
2022-07-28T12:21:48.411Z,29.80
2022-07-28T12:24:23.642Z,29.60
2022-07-28T12:26:50.674Z,29.90
2022-07-28T12:29:19.628Z,30.50
2022-07-28T12:31:59.123Z,30.20
2022-07-28T12:34:29.246Z,28.60
2022-07-28T12:36:58.222Z,27.70
2022-07-28T12:39:26.079Z,27.40
2022-07-28T12:42:12.959Z,28.80
2022-07-28T12:44:45.002Z,28.30
2022-07-28T12:47:13.582Z,27.90
2022-07-28T12:49:43.182Z,27.80
2022-07-28T12:52:18.090Z,26.30
2022-07-28T12:54:54.485Z,25.50
2022-07-28T12:57:51.036Z,25.10
2022-07-28T13:00:21.024Z,24.20
2022-07-28T13:02:49.726Z,23.60
2022-07-28T13:05:29.457Z,23.30
2022-07-28T13:08:06.214Z,23.30
2022-07-28T13:10:33.305Z,23.30
2022-07-28T13:13:07.608Z,23.40
2022-07-28T13:15:34.947Z,24.00
2022-07-28T13:18:01.923Z,24.50
2022-07-28T13:20:28.656Z,24.90
2022-07-28T13:22:57.213Z,25.90
2022-07-28T13:25:23.881Z,27.30
2022-07-28T13:27:55.063Z,28.30
2022-07-28T13:30:23.470Z,28.40
2022-07-28T13:32:50.648Z,28.50
2022-07-28T13:35:18.800Z,29.30
2022-07-28T13:37:47.716Z,30.00
2022-07-28T13:40:15.116Z,30.00
2022-07-28T13:42:52.813Z,30.80
2022-07-28T13:45:24.027Z,30.80
2022-07-28T13:47:52.230Z,30.20
2022-07-28T13:50:19.458Z,30.30
2022-07-28T13:52:46.135Z,30.70
2022-07-28T13:55:13.190Z,31.10
2022-07-28T13:57:45.999Z,31.40
2022-07-28T14:00:17.858Z,31.00
2022-07-28T14:02:48.593Z,30.80
2022-07-28T14:05:15.752Z,30.30
2022-07-28T14:07:42.671Z,30.60
2022-07-28T14:10:15.599Z,31.00
2022-07-28T14:12:42.295Z,31.60
2022-07-28T14:15:11.915Z,31.90
2022-07-28T14:17:43.867Z,31.40
2022-07-28T14:20:13.694Z,31.40
2022-07-28T14:22:40.872Z,31.30
2022-07-28T14:25:08.209Z,30.90
2022-07-28T14:27:34.959Z,30.80
2022-07-28T14:30:03.450Z,30.30
2022-07-28T14:32:31.283Z,30.70
2022-07-28T14:34:57.944Z,31.10
2022-07-28T14:37:25.280Z,31.50
2022-07-28T14:39:51.965Z,31.40
2022-07-28T14:42:18.793Z,29.30
2022-07-28T14:44:45.495Z,27.80
2022-07-28T14:47:12.248Z,27.70
2022-07-28T14:49:58.043Z,27.80
2022-07-28T14:52:26.639Z,27.90
2022-07-28T14:54:57.153Z,28.30
2022-07-28T14:57:45.871Z,28.60
2022-07-28T15:00:13.726Z,28.30
2022-07-28T15:02:40.616Z,27.90
2022-07-28T15:05:08.274Z,27.60
2022-07-28T15:07:35.592Z,27.40
2022-07-28T15:10:02.898Z,27.10
2022-07-28T15:12:29.523Z,26.50
2022-07-28T15:14:56.290Z,26.50
2022-07-28T15:17:22.920Z,26.80
2022-07-28T15:19:49.591Z,27.00
2022-07-28T15:22:16.245Z,26.80
2022-07-28T15:24:45.689Z,26.60
2022-07-28T15:27:12.758Z,26.50
2022-07-28T15:29:39.555Z,26.40
2022-07-28T15:32:10.808Z,26.30
2022-07-28T15:34:39.803Z,26.30
2022-07-28T15:37:06.838Z,26.40
2022-07-28T15:39:34.025Z,26.40
2022-07-28T15:42:01.377Z,26.50
2022-07-28T15:44:29.823Z,27.00
2022-07-28T15:46:56.601Z,27.40
2022-07-28T15:49:23.417Z,27.00
2022-07-28T15:51:50.186Z,27.10
2022-07-28T15:54:17.070Z,27.30
2022-07-28T15:56:44.023Z,27.50
2022-07-28T15:59:10.958Z,27.70
2022-07-28T16:01:40.852Z,27.80
2022-07-28T16:04:11.649Z,27.70
2022-07-28T16:06:56.813Z,27.50
2022-07-28T16:09:23.694Z,27.40
2022-07-28T16:11:50.773Z,27.60
2022-07-28T16:14:18.060Z,27.60
2022-07-28T16:16:45.190Z,27.50
2022-07-28T16:19:25.313Z,27.50
2022-07-28T16:21:58.570Z,27.50
2022-07-28T16:24:25.405Z,27.10
2022-07-28T16:26:52.053Z,26.40
2022-07-28T16:29:18.818Z,25.90
2022-07-28T16:31:45.618Z,25.50
2022-07-28T16:34:12.789Z,25.10
2022-07-28T16:36:42.448Z,24.90
2022-07-28T16:39:09.467Z,24.80
2022-07-28T16:41:46.712Z,24.70
2022-07-28T16:44:14.589Z,24.70
2022-07-28T16:46:42.281Z,24.50
2022-07-28T16:49:09.126Z,24.50
2022-07-28T16:51:35.965Z,24.50
2022-07-28T16:54:02.998Z,24.50
2022-07-28T16:56:29.802Z,24.50
2022-07-28T16:59:00.349Z,24.40
2022-07-28T17:01:27.503Z,24.30
2022-07-28T17:03:54.286Z,24.10
2022-07-28T17:06:20.964Z,24.10
2022-07-28T17:08:47.621Z,24.00
2022-07-28T17:11:14.461Z,23.70
2022-07-28T17:13:45.211Z,23.70
2022-07-28T17:16:12.823Z,23.60
2022-07-28T17:18:39.696Z,23.60
2022-07-28T17:21:06.395Z,23.50
2022-07-28T17:23:34.702Z,23.40
2022-07-28T17:28:54.025Z,23.10
2022-07-28T17:31:20.922Z,23.00
2022-07-28T17:33:47.699Z,22.90
2022-07-28T17:36:15.827Z,22.80
2022-07-28T17:38:42.987Z,22.70
2022-07-28T17:41:09.778Z,22.70
2022-07-28T17:43:38.276Z,22.70
2022-07-28T17:46:10.639Z,22.60
2022-07-28T17:48:38.726Z,22.50
2022-07-28T17:51:05.627Z,22.50
2022-07-28T17:53:33.555Z,22.50
2022-07-28T17:56:05.982Z,22.40
2022-07-28T17:58:35.209Z,22.40
2022-07-28T18:01:09.877Z,22.30
2022-07-28T18:03:58.557Z,22.20
2022-07-28T18:06:32.518Z,22.10
2022-07-28T18:09:04.805Z,22.00
2022-07-28T18:11:33.709Z,21.90
2022-07-28T18:14:03.919Z,21.80
2022-07-28T18:16:33.928Z,21.70
2022-07-28T18:19:01.002Z,21.60
2022-07-28T18:21:28.022Z,21.50
2022-07-28T18:23:54.926Z,21.50
2022-07-28T18:26:22.218Z,21.40
2022-07-28T18:28:49.319Z,21.50
2022-07-28T18:31:16.101Z,21.30
2022-07-28T18:33:42.923Z,21.20
2022-07-28T18:36:10.053Z,21.10
2022-07-28T18:38:36.654Z,21.00
2022-07-28T18:41:03.358Z,20.90
2022-07-28T18:43:31.266Z,20.80
2022-07-28T18:45:58.054Z,20.80
2022-07-28T18:48:25.567Z,20.70
2022-07-28T18:50:52.673Z,20.70
2022-07-28T18:53:19.403Z,20.60
2022-07-28T18:55:46.072Z,20.40
2022-07-28T18:58:12.705Z,20.30
2022-07-28T19:00:39.573Z,20.30
2022-07-28T19:03:06.386Z,20.20
2022-07-28T19:05:36.896Z,20.10
2022-07-28T19:08:05.093Z,20.10
2022-07-28T19:10:34.588Z,20.00
2022-07-28T19:13:01.296Z,19.80
2022-07-28T19:15:28.021Z,19.80
2022-07-28T19:18:09.932Z,19.60
2022-07-28T19:20:44.350Z,19.50
2022-07-28T19:23:11.351Z,19.40
2022-07-28T19:25:41.571Z,19.30
2022-07-28T19:28:08.234Z,19.20
2022-07-28T19:30:35.121Z,19.20
2022-07-28T19:33:02.661Z,19.10
2022-07-28T19:35:30.262Z,19.00
2022-07-28T19:37:59.770Z,19.00
2022-07-28T19:40:29.146Z,19.00
2022-07-28T19:42:56.692Z,18.90
2022-07-28T19:45:23.949Z,18.80
2022-07-28T19:47:50.687Z,18.80
2022-07-28T19:50:17.501Z,18.80
2022-07-28T19:52:44.259Z,18.70
2022-07-28T19:55:11.218Z,18.70
2022-07-28T19:57:42.097Z,18.60
2022-07-28T20:00:10.099Z,18.50
2022-07-28T20:02:39.932Z,18.40
2022-07-28T20:05:07.359Z,18.40
2022-07-28T20:07:34.076Z,18.40
2022-07-28T20:10:01.198Z,18.30
2022-07-28T20:12:32.802Z,18.30
2022-07-28T20:15:03.013Z,18.30
2022-07-28T20:17:37.968Z,18.40
2022-07-28T20:20:09.426Z,18.40
2022-07-28T20:22:36.214Z,18.30
2022-07-28T20:25:03.494Z,18.20
2022-07-28T20:27:30.253Z,18.10
2022-07-28T20:29:58.934Z,18.10
2022-07-28T20:32:25.864Z,18.10
2022-07-28T20:34:52.816Z,18.10
2022-07-28T20:37:36.104Z,18.00
2022-07-28T20:40:05.376Z,17.90
2022-07-28T20:42:32.097Z,17.90
2022-07-28T20:44:58.726Z,17.80
2022-07-28T20:47:26.037Z,17.80
2022-07-28T20:49:53.407Z,17.70
2022-07-28T20:52:20.061Z,17.70
2022-07-28T20:54:49.462Z,17.70
2022-07-28T20:57:20.486Z,17.70
2022-07-28T20:59:48.851Z,17.60
2022-07-28T21:02:15.584Z,17.60
2022-07-28T21:04:42.291Z,17.50
2022-07-28T21:07:10.794Z,17.50
2022-07-28T21:09:37.500Z,17.50
2022-07-28T21:12:04.683Z,17.40
2022-07-28T21:14:32.588Z,17.40
2022-07-28T21:16:59.695Z,17.30
2022-07-28T21:19:26.464Z,17.30
2022-07-28T21:21:53.243Z,17.20
2022-07-28T21:24:19.912Z,17.20
2022-07-28T21:26:46.666Z,17.10
2022-07-28T21:32:04.884Z,17.00
2022-07-28T21:34:34.431Z,17.00
2022-07-28T21:37:03.029Z,17.00
2022-07-28T21:39:29.689Z,16.90
2022-07-28T21:41:56.423Z,16.90
2022-07-28T21:44:23.120Z,16.80
2022-07-28T21:46:49.894Z,16.80
2022-07-28T21:49:16.768Z,16.70
2022-07-28T21:51:45.779Z,16.70
2022-07-28T21:54:12.817Z,16.60
2022-07-28T21:56:39.720Z,16.60
2022-07-28T21:59:06.389Z,16.60
2022-07-28T22:01:33.213Z,16.50
2022-07-28T22:03:59.970Z,16.50
2022-07-28T22:06:26.638Z,16.40
2022-07-28T22:08:56.041Z,16.30
2022-07-28T22:11:23.449Z,16.30
2022-07-28T22:13:50.242Z,16.20
2022-07-28T22:16:16.974Z,16.20
2022-07-28T22:18:43.824Z,16.10
2022-07-28T22:21:10.517Z,16.10
2022-07-28T22:23:37.279Z,16.10
2022-07-28T22:26:03.970Z,16.00
2022-07-28T22:28:30.950Z,15.90
2022-07-28T22:31:08.599Z,15.90
2022-07-28T22:33:37.787Z,15.80
2022-07-28T22:36:06.611Z,15.60
2022-07-28T22:38:33.254Z,15.50
2022-07-28T22:40:59.986Z,15.30
2022-07-28T22:43:26.699Z,15.10
2022-07-28T22:45:53.385Z,15.00
2022-07-28T22:48:20.058Z,14.80
2022-07-28T22:50:46.682Z,14.70
2022-07-28T22:53:13.335Z,14.60
2022-07-28T22:58:24.502Z,14.40
2022-07-28T23:00:51.573Z,14.20
2022-07-28T23:03:18.878Z,14.20
2022-07-28T23:05:45.873Z,14.00
2022-07-28T23:08:13.046Z,14.00
2022-07-28T23:10:39.921Z,13.80
2022-07-28T23:13:06.703Z,13.70
2022-07-28T23:15:40.084Z,13.60
2022-07-28T23:18:09.160Z,13.60
2022-07-28T23:20:36.034Z,13.50
2022-07-28T23:23:02.720Z,13.50
2022-07-28T23:25:29.447Z,13.40
2022-07-28T23:27:56.209Z,13.40
2022-07-28T23:30:22.854Z,13.40
2022-07-28T23:32:52.531Z,13.40
2022-07-28T23:35:19.653Z,13.40
2022-07-28T23:37:46.484Z,13.30
2022-07-28T23:40:13.568Z,13.30
2022-07-28T23:42:40.369Z,13.20
2022-07-28T23:45:08.033Z,13.10
2022-07-28T23:47:35.045Z,13.00
2022-07-28T23:50:02.446Z,12.90
2022-07-28T23:52:29.117Z,13.00
2022-07-28T23:54:56.009Z,13.00
2022-07-28T23:57:22.884Z,13.10
2022-07-28T23:59:49.664Z,13.10
